Philadelphia, Pennsylvania
Traffic Map
Current Weather Conditions
Philadelphia, Pennsylvania
Broken Clouds
Broken Clouds

Feels Like: -2°
Wind Chill: -2° Ceiling: 8000
Heat Index: Visibility: 10mi
Dew Point: -3° Wind: 16mph
Humidity: 62% Direction: 310° (NW)
Pressure: 29.94in Gusts: 26mph
Raw Report DataKPHL 301520Z 31014G23KT 10SM FEW020 SCT050 BKN080 BKN140 03/M03 A2994 RMK AO2 PK WND 32026/1509 SNB1456E20 P0000 T00331033 $
Traffic Incident Summary
Active as of:
Severity:
Category:
InformationThere was an issue retrieving the traffic information for this location. Please try a different location or try again shortly.
Advertisements
Track Severe Weather on mobile